sensor_id;sensor_type;location;lat;lon;timestamp;P1;durP1;ratioP1;P2;durP2;ratioP2
8488;SDS011;4281;45.772;12.852;2023-05-07T00:01:43;7.20;;;6.60;;
8488;SDS011;4281;45.772;12.852;2023-05-07T00:04:11;7.97;;;7.20;;
8488;SDS011;4281;45.772;12.852;2023-05-07T00:06:39;7.80;;;7.10;;
8488;SDS011;4281;45.772;12.852;2023-05-07T00:09:07;8.10;;;7.40;;
8488;SDS011;4281;45.772;12.852;2023-05-07T00:11:35;7.70;;;7.00;;
8488;SDS011;4281;45.772;12.852;2023-05-07T00:14:03;8.30;;;7.60;;
8488;SDS011;4281;45.772;12.852;2023-05-07T00:16:32;9.07;;;8.27;;
8488;SDS011;4281;45.772;12.852;2023-05-07T00:19:00;7.60;;;6.87;;
8488;SDS011;4281;45.772;12.852;2023-05-07T00:21:28;9.23;;;8.03;;
8488;SDS011;4281;45.772;12.852;2023-05-07T00:23:56;7.87;;;7.27;;
8488;SDS011;4281;45.772;12.852;2023-05-07T00:26:24;8.33;;;7.63;;
8488;SDS011;4281;45.772;12.852;2023-05-07T00:28:52;8.07;;;7.47;;
8488;SDS011;4281;45.772;12.852;2023-05-07T00:31:20;8.70;;;8.00;;
8488;SDS011;4281;45.772;12.852;2023-05-07T00:33:49;9.03;;;8.23;;
8488;SDS011;4281;45.772;12.852;2023-05-07T00:36:17;9.07;;;8.27;;
8488;SDS011;4281;45.772;12.852;2023-05-07T00:38:45;9.40;;;8.60;;
8488;SDS011;4281;45.772;12.852;2023-05-07T00:41:14;8.87;;;8.10;;
8488;SDS011;4281;45.772;12.852;2023-05-07T00:43:42;8.47;;;7.77;;
8488;SDS011;4281;45.772;12.852;2023-05-07T00:46:10;8.57;;;7.77;;
8488;SDS011;4281;45.772;12.852;2023-05-07T00:48:39;8.97;;;8.23;;
8488;SDS011;4281;45.772;12.852;2023-05-07T00:51:08;9.57;;;8.57;;
8488;SDS011;4281;45.772;12.852;2023-05-07T00:53:37;8.73;;;8.03;;
8488;SDS011;4281;45.772;12.852;2023-05-07T00:56:06;9.07;;;8.37;;
8488;SDS011;4281;45.772;12.852;2023-05-07T00:58:34;9.10;;;8.40;;
8488;SDS011;4281;45.772;12.852;2023-05-07T01:01:02;8.80;;;8.10;;
8488;SDS011;4281;45.772;12.852;2023-05-07T01:03:30;9.37;;;8.50;;
8488;SDS011;4281;45.772;12.852;2023-05-07T01:05:58;8.43;;;7.73;;
8488;SDS011;4281;45.772;12.852;2023-05-07T01:08:29;8.50;;;7.80;;
8488;SDS011;4281;45.772;12.852;2023-05-07T01:10:57;8.80;;;7.90;;
8488;SDS011;4281;45.772;12.852;2023-05-07T01:13:25;9.13;;;8.33;;
8488;SDS011;4281;45.772;12.852;2023-05-07T01:15:53;7.87;;;7.17;;
8488;SDS011;4281;45.772;12.852;2023-05-07T01:18:21;9.37;;;8.47;;
8488;SDS011;4281;45.772;12.852;2023-05-07T01:20:49;9.10;;;8.23;;
8488;SDS011;4281;45.772;12.852;2023-05-07T01:23:18;9.27;;;8.47;;
8488;SDS011;4281;45.772;12.852;2023-05-07T01:25:50;9.43;;;8.63;;
8488;SDS011;4281;45.772;12.852;2023-05-07T01:28:19;9.80;;;8.97;;
8488;SDS011;4281;45.772;12.852;2023-05-07T01:30:48;9.33;;;8.53;;
8488;SDS011;4281;45.772;12.852;2023-05-07T01:33:19;9.57;;;8.77;;
8488;SDS011;4281;45.772;12.852;2023-05-07T01:35:49;9.57;;;8.77;;
8488;SDS011;4281;45.772;12.852;2023-05-07T01:38:20;9.53;;;8.73;;
8488;SDS011;4281;45.772;12.852;2023-05-07T01:40:49;9.70;;;8.90;;
8488;SDS011;4281;45.772;12.852;2023-05-07T01:43:17;9.80;;;9.00;;
8488;SDS011;4281;45.772;12.852;2023-05-07T01:45:45;9.03;;;8.27;;
8488;SDS011;4281;45.772;12.852;2023-05-07T01:48:15;8.80;;;8.10;;
8488;SDS011;4281;45.772;12.852;2023-05-07T01:50:43;8.83;;;8.03;;
8488;SDS011;4281;45.772;12.852;2023-05-07T01:53:11;8.90;;;8.20;;
8488;SDS011;4281;45.772;12.852;2023-05-07T01:55:41;9.03;;;8.27;;
8488;SDS011;4281;45.772;12.852;2023-05-07T01:58:08;8.30;;;7.60;;
8488;SDS011;4281;45.772;12.852;2023-05-07T02:00:37;8.77;;;8.00;;
8488;SDS011;4281;45.772;12.852;2023-05-07T02:03:04;7.93;;;7.23;;
8488;SDS011;4281;45.772;12.852;2023-05-07T02:05:32;8.50;;;7.80;;
8488;SDS011;4281;45.772;12.852;2023-05-07T02:08:00;8.13;;;7.43;;
8488;SDS011;4281;45.772;12.852;2023-05-07T02:10:28;8.87;;;8.07;;
8488;SDS011;4281;45.772;12.852;2023-05-07T02:12:57;8.67;;;7.97;;
8488;SDS011;4281;45.772;12.852;2023-05-07T02:15:26;8.03;;;7.33;;
8488;SDS011;4281;45.772;12.852;2023-05-07T02:18:00;8.27;;;7.57;;
8488;SDS011;4281;45.772;12.852;2023-05-07T02:20:29;7.80;;;7.20;;
8488;SDS011;4281;45.772;12.852;2023-05-07T02:22:57;8.03;;;7.33;;
8488;SDS011;4281;45.772;12.852;2023-05-07T02:25:25;6.73;;;6.23;;
8488;SDS011;4281;45.772;12.852;2023-05-07T02:27:53;7.37;;;6.67;;
8488;SDS011;4281;45.772;12.852;2023-05-07T02:30:22;7.03;;;6.43;;
8488;SDS011;4281;45.772;12.852;2023-05-07T02:32:51;6.50;;;5.90;;
8488;SDS011;4281;45.772;12.852;2023-05-07T02:35:19;6.57;;;6.07;;
8488;SDS011;4281;45.772;12.852;2023-05-07T02:37:46;6.40;;;5.80;;
8488;SDS011;4281;45.772;12.852;2023-05-07T02:40:14;6.13;;;5.60;;
8488;SDS011;4281;45.772;12.852;2023-05-07T02:42:42;5.73;;;5.23;;
8488;SDS011;4281;45.772;12.852;2023-05-07T02:45:10;5.90;;;5.40;;
8488;SDS011;4281;45.772;12.852;2023-05-07T02:47:40;5.83;;;5.33;;
8488;SDS011;4281;45.772;12.852;2023-05-07T02:50:07;5.03;;;4.63;;
8488;SDS011;4281;45.772;12.852;2023-05-07T02:52:36;5.70;;;5.20;;
8488;SDS011;4281;45.772;12.852;2023-05-07T02:55:04;5.27;;;4.87;;
8488;SDS011;4281;45.772;12.852;2023-05-07T02:57:33;5.83;;;5.33;;
8488;SDS011;4281;45.772;12.852;2023-05-07T03:00:09;5.80;;;5.30;;
8488;SDS011;4281;45.772;12.852;2023-05-07T03:02:39;5.20;;;4.80;;
8488;SDS011;4281;45.772;12.852;2023-05-07T03:05:07;5.43;;;4.97;;
8488;SDS011;4281;45.772;12.852;2023-05-07T03:07:35;5.67;;;5.17;;
8488;SDS011;4281;45.772;12.852;2023-05-07T03:10:03;5.47;;;4.97;;
8488;SDS011;4281;45.772;12.852;2023-05-07T03:12:32;5.23;;;4.83;;
8488;SDS011;4281;45.772;12.852;2023-05-07T03:15:00;5.37;;;4.87;;
8488;SDS011;4281;45.772;12.852;2023-05-07T03:17:28;5.40;;;5.00;;
8488;SDS011;4281;45.772;12.852;2023-05-07T03:19:57;5.37;;;4.97;;
8488;SDS011;4281;45.772;12.852;2023-05-07T03:22:25;4.60;;;4.30;;
8488;SDS011;4281;45.772;12.852;2023-05-07T03:24:53;5.27;;;4.77;;
8488;SDS011;4281;45.772;12.852;2023-05-07T03:27:21;5.00;;;4.60;;
8488;SDS011;4281;45.772;12.852;2023-05-07T03:29:48;5.10;;;4.37;;
8488;SDS011;4281;45.772;12.852;2023-05-07T03:32:16;5.10;;;4.70;;
8488;SDS011;4281;45.772;12.852;2023-05-07T03:34:44;5.23;;;4.83;;
8488;SDS011;4281;45.772;12.852;2023-05-07T03:37:13;4.90;;;4.50;;
8488;SDS011;4281;45.772;12.852;2023-05-07T03:39:41;4.90;;;4.50;;
8488;SDS011;4281;45.772;12.852;2023-05-07T03:42:09;5.10;;;4.70;;
8488;SDS011;4281;45.772;12.852;2023-05-07T03:44:37;4.63;;;4.20;;
8488;SDS011;4281;45.772;12.852;2023-05-07T03:47:05;4.77;;;4.37;;
8488;SDS011;4281;45.772;12.852;2023-05-07T03:49:34;4.50;;;4.20;;
8488;SDS011;4281;45.772;12.852;2023-05-07T03:52:02;4.60;;;4.30;;
8488;SDS011;4281;45.772;12.852;2023-05-07T03:54:31;4.43;;;4.13;;
8488;SDS011;4281;45.772;12.852;2023-05-07T03:56:59;4.77;;;4.40;;
8488;SDS011;4281;45.772;12.852;2023-05-07T03:59:28;4.73;;;4.20;;
8488;SDS011;4281;45.772;12.852;2023-05-07T04:01:55;4.80;;;4.40;;
8488;SDS011;4281;45.772;12.852;2023-05-07T04:04:23;4.87;;;4.40;;
8488;SDS011;4281;45.772;12.852;2023-05-07T04:06:51;4.33;;;4.03;;
8488;SDS011;4281;45.772;12.852;2023-05-07T04:09:19;4.57;;;4.17;;
8488;SDS011;4281;45.772;12.852;2023-05-07T04:11:48;4.93;;;4.53;;
8488;SDS011;4281;45.772;12.852;2023-05-07T04:14:16;4.20;;;3.90;;
8488;SDS011;4281;45.772;12.852;2023-05-07T04:16:44;4.70;;;4.30;;
8488;SDS011;4281;45.772;12.852;2023-05-07T04:19:12;4.40;;;4.10;;
8488;SDS011;4281;45.772;12.852;2023-05-07T04:21:40;4.40;;;4.00;;
8488;SDS011;4281;45.772;12.852;2023-05-07T04:24:08;4.27;;;3.97;;
8488;SDS011;4281;45.772;12.852;2023-05-07T04:26:36;4.07;;;3.77;;
8488;SDS011;4281;45.772;12.852;2023-05-07T04:29:05;5.80;;;4.30;;
8488;SDS011;4281;45.772;12.852;2023-05-07T04:31:33;4.30;;;4.00;;
8488;SDS011;4281;45.772;12.852;2023-05-07T04:34:01;3.97;;;3.67;;
8488;SDS011;4281;45.772;12.852;2023-05-07T04:36:29;3.67;;;3.37;;
8488;SDS011;4281;45.772;12.852;2023-05-07T04:38:56;4.10;;;3.80;;
8488;SDS011;4281;45.772;12.852;2023-05-07T04:41:24;4.30;;;4.00;;
8488;SDS011;4281;45.772;12.852;2023-05-07T04:43:52;4.50;;;4.10;;
8488;SDS011;4281;45.772;12.852;2023-05-07T04:46:22;4.50;;;4.00;;
8488;SDS011;4281;45.772;12.852;2023-05-07T04:48:51;4.07;;;3.73;;
8488;SDS011;4281;45.772;12.852;2023-05-07T04:51:19;3.53;;;3.33;;
8488;SDS011;4281;45.772;12.852;2023-05-07T04:53:47;3.93;;;3.63;;
8488;SDS011;4281;45.772;12.852;2023-05-07T04:56:15;3.73;;;3.43;;
8488;SDS011;4281;45.772;12.852;2023-05-07T04:58:42;3.70;;;3.40;;
8488;SDS011;4281;45.772;12.852;2023-05-07T05:01:10;3.73;;;3.43;;
8488;SDS011;4281;45.772;12.852;2023-05-07T05:03:39;3.57;;;3.03;;
8488;SDS011;4281;45.772;12.852;2023-05-07T05:06:07;3.30;;;3.00;;
8488;SDS011;4281;45.772;12.852;2023-05-07T05:08:35;3.67;;;3.20;;
8488;SDS011;4281;45.772;12.852;2023-05-07T05:11:03;3.50;;;3.20;;
8488;SDS011;4281;45.772;12.852;2023-05-07T05:13:31;3.00;;;2.80;;
8488;SDS011;4281;45.772;12.852;2023-05-07T05:15:59;3.07;;;2.77;;
8488;SDS011;4281;45.772;12.852;2023-05-07T05:18:26;2.70;;;2.50;;
8488;SDS011;4281;45.772;12.852;2023-05-07T05:20:56;2.90;;;2.70;;
8488;SDS011;4281;45.772;12.852;2023-05-07T05:23:24;3.53;;;3.23;;
8488;SDS011;4281;45.772;12.852;2023-05-07T05:25:55;3.53;;;3.23;;
8488;SDS011;4281;45.772;12.852;2023-05-07T05:28:23;3.10;;;2.73;;
8488;SDS011;4281;45.772;12.852;2023-05-07T05:30:51;2.63;;;2.43;;
8488;SDS011;4281;45.772;12.852;2023-05-07T05:33:19;3.03;;;2.83;;
8488;SDS011;4281;45.772;12.852;2023-05-07T05:35:47;3.03;;;2.73;;
8488;SDS011;4281;45.772;12.852;2023-05-07T05:38:16;2.73;;;2.53;;
8488;SDS011;4281;45.772;12.852;2023-05-07T05:40:44;3.30;;;2.43;;
8488;SDS011;4281;45.772;12.852;2023-05-07T05:43:13;2.87;;;2.67;;
8488;SDS011;4281;45.772;12.852;2023-05-07T05:45:41;2.90;;;2.70;;
8488;SDS011;4281;45.772;12.852;2023-05-07T05:48:09;3.47;;;3.17;;
8488;SDS011;4281;45.772;12.852;2023-05-07T05:50:37;2.60;;;2.40;;
8488;SDS011;4281;45.772;12.852;2023-05-07T05:53:04;2.30;;;2.20;;
8488;SDS011;4281;45.772;12.852;2023-05-07T05:55:34;3.20;;;2.90;;
8488;SDS011;4281;45.772;12.852;2023-05-07T05:58:02;3.03;;;2.60;;
8488;SDS011;4281;45.772;12.852;2023-05-07T06:00:29;2.87;;;2.50;;
8488;SDS011;4281;45.772;12.852;2023-05-07T06:02:57;2.50;;;2.30;;
8488;SDS011;4281;45.772;12.852;2023-05-07T06:05:25;2.87;;;2.67;;
8488;SDS011;4281;45.772;12.852;2023-05-07T06:07:53;2.60;;;2.40;;
8488;SDS011;4281;45.772;12.852;2023-05-07T06:10:21;2.90;;;2.43;;
8488;SDS011;4281;45.772;12.852;2023-05-07T06:12:51;2.93;;;2.73;;
8488;SDS011;4281;45.772;12.852;2023-05-07T06:15:19;2.70;;;2.50;;
8488;SDS011;4281;45.772;12.852;2023-05-07T06:17:47;3.17;;;2.60;;
8488;SDS011;4281;45.772;12.852;2023-05-07T06:20:15;2.93;;;2.60;;
8488;SDS011;4281;45.772;12.852;2023-05-07T06:22:43;2.90;;;2.50;;
8488;SDS011;4281;45.772;12.852;2023-05-07T06:25:11;3.03;;;2.77;;
8488;SDS011;4281;45.772;12.852;2023-05-07T06:27:39;2.80;;;2.60;;
8488;SDS011;4281;45.772;12.852;2023-05-07T06:30:09;2.50;;;2.30;;
8488;SDS011;4281;45.772;12.852;2023-05-07T06:32:37;2.93;;;2.73;;
8488;SDS011;4281;45.772;12.852;2023-05-07T06:35:07;3.10;;;2.87;;
8488;SDS011;4281;45.772;12.852;2023-05-07T06:37:36;2.63;;;2.43;;
8488;SDS011;4281;45.772;12.852;2023-05-07T06:40:06;2.60;;;2.40;;
8488;SDS011;4281;45.772;12.852;2023-05-07T06:42:35;2.80;;;2.60;;
8488;SDS011;4281;45.772;12.852;2023-05-07T06:45:03;2.60;;;2.40;;
8488;SDS011;4281;45.772;12.852;2023-05-07T06:47:33;2.70;;;2.50;;
8488;SDS011;4281;45.772;12.852;2023-05-07T06:50:01;3.13;;;2.80;;
8488;SDS011;4281;45.772;12.852;2023-05-07T06:52:29;3.10;;;2.90;;
8488;SDS011;4281;45.772;12.852;2023-05-07T06:54:57;3.30;;;3.00;;
8488;SDS011;4281;45.772;12.852;2023-05-07T06:57:25;3.20;;;2.87;;
8488;SDS011;4281;45.772;12.852;2023-05-07T06:59:52;3.07;;;2.87;;
8488;SDS011;4281;45.772;12.852;2023-05-07T07:02:20;3.23;;;2.83;;
8488;SDS011;4281;45.772;12.852;2023-05-07T07:04:50;3.10;;;2.90;;
8488;SDS011;4281;45.772;12.852;2023-05-07T07:07:17;2.77;;;2.57;;
8488;SDS011;4281;45.772;12.852;2023-05-07T07:09:45;3.17;;;2.80;;
8488;SDS011;4281;45.772;12.852;2023-05-07T07:12:13;2.73;;;2.53;;
8488;SDS011;4281;45.772;12.852;2023-05-07T07:14:41;3.03;;;2.73;;
8488;SDS011;4281;45.772;12.852;2023-05-07T07:17:09;2.80;;;2.60;;
8488;SDS011;4281;45.772;12.852;2023-05-07T07:19:37;3.03;;;2.73;;
8488;SDS011;4281;45.772;12.852;2023-05-07T07:22:07;2.90;;;2.70;;
8488;SDS011;4281;45.772;12.852;2023-05-07T07:24:35;2.90;;;2.70;;
8488;SDS011;4281;45.772;12.852;2023-05-07T07:27:02;3.00;;;2.80;;
8488;SDS011;4281;45.772;12.852;2023-05-07T07:29:31;2.97;;;2.77;;
8488;SDS011;4281;45.772;12.852;2023-05-07T07:31:59;3.27;;;3.03;;
8488;SDS011;4281;45.772;12.852;2023-05-07T07:34:27;2.93;;;2.73;;
8488;SDS011;4281;45.772;12.852;2023-05-07T07:36:55;3.07;;;2.87;;
8488;SDS011;4281;45.772;12.852;2023-05-07T07:39:24;3.93;;;2.93;;
8488;SDS011;4281;45.772;12.852;2023-05-07T07:41:52;9.43;;;3.50;;
8488;SDS011;4281;45.772;12.852;2023-05-07T07:44:20;11.30;;;3.57;;
8488;SDS011;4281;45.772;12.852;2023-05-07T07:46:47;7.13;;;3.17;;
8488;SDS011;4281;45.772;12.852;2023-05-07T07:49:16;3.70;;;3.40;;
8488;SDS011;4281;45.772;12.852;2023-05-07T07:51:43;3.10;;;2.90;;
8488;SDS011;4281;45.772;12.852;2023-05-07T07:54:11;2.80;;;2.60;;
8488;SDS011;4281;45.772;12.852;2023-05-07T07:56:41;3.40;;;3.10;;
8488;SDS011;4281;45.772;12.852;2023-05-07T07:59:09;3.90;;;3.20;;
8488;SDS011;4281;45.772;12.852;2023-05-07T08:01:38;3.50;;;3.17;;
8488;SDS011;4281;45.772;12.852;2023-05-07T08:04:06;2.90;;;2.70;;
8488;SDS011;4281;45.772;12.852;2023-05-07T08:06:34;3.37;;;3.13;;
8488;SDS011;4281;45.772;12.852;2023-05-07T08:09:02;3.40;;;3.20;;
8488;SDS011;4281;45.772;12.852;2023-05-07T08:11:30;3.80;;;3.50;;
8488;SDS011;4281;45.772;12.852;2023-05-07T08:13:59;3.50;;;3.20;;
8488;SDS011;4281;45.772;12.852;2023-05-07T08:16:28;3.40;;;3.20;;
8488;SDS011;4281;45.772;12.852;2023-05-07T08:18:56;3.20;;;3.00;;
8488;SDS011;4281;45.772;12.852;2023-05-07T08:21:24;3.13;;;2.93;;
8488;SDS011;4281;45.772;12.852;2023-05-07T08:23:52;3.30;;;3.10;;
8488;SDS011;4281;45.772;12.852;2023-05-07T08:26:20;3.23;;;3.03;;
8488;SDS011;4281;45.772;12.852;2023-05-07T08:28:48;3.63;;;3.43;;
8488;SDS011;4281;45.772;12.852;2023-05-07T08:31:17;3.20;;;3.00;;
8488;SDS011;4281;45.772;12.852;2023-05-07T08:33:45;3.40;;;3.20;;
8488;SDS011;4281;45.772;12.852;2023-05-07T08:36:13;3.67;;;3.40;;
8488;SDS011;4281;45.772;12.852;2023-05-07T08:38:41;4.20;;;3.53;;
8488;SDS011;4281;45.772;12.852;2023-05-07T08:41:12;3.30;;;3.10;;
8488;SDS011;4281;45.772;12.852;2023-05-07T08:43:40;3.57;;;3.27;;
8488;SDS011;4281;45.772;12.852;2023-05-07T08:46:08;3.40;;;3.20;;
8488;SDS011;4281;45.772;12.852;2023-05-07T08:48:39;3.30;;;3.00;;
8488;SDS011;4281;45.772;12.852;2023-05-07T08:51:08;3.57;;;3.33;;
8488;SDS011;4281;45.772;12.852;2023-05-07T08:53:41;3.87;;;3.20;;
8488;SDS011;4281;45.772;12.852;2023-05-07T08:56:09;3.43;;;3.23;;
8488;SDS011;4281;45.772;12.852;2023-05-07T08:58:37;3.33;;;3.13;;
8488;SDS011;4281;45.772;12.852;2023-05-07T09:01:06;3.80;;;3.50;;
8488;SDS011;4281;45.772;12.852;2023-05-07T09:03:36;3.47;;;3.17;;
8488;SDS011;4281;45.772;12.852;2023-05-07T09:06:05;3.73;;;3.53;;
8488;SDS011;4281;45.772;12.852;2023-05-07T09:08:33;3.77;;;3.47;;
8488;SDS011;4281;45.772;12.852;2023-05-07T09:11:02;4.00;;;3.33;;
8488;SDS011;4281;45.772;12.852;2023-05-07T09:13:30;3.90;;;3.60;;
8488;SDS011;4281;45.772;12.852;2023-05-07T09:15:59;3.77;;;3.30;;
8488;SDS011;4281;45.772;12.852;2023-05-07T09:18:40;4.07;;;3.57;;
8488;SDS011;4281;45.772;12.852;2023-05-07T09:21:11;4.13;;;3.80;;
8488;SDS011;4281;45.772;12.852;2023-05-07T09:23:39;3.93;;;3.63;;
8488;SDS011;4281;45.772;12.852;2023-05-07T09:26:07;4.07;;;3.77;;
8488;SDS011;4281;45.772;12.852;2023-05-07T09:28:38;4.00;;;3.70;;
8488;SDS011;4281;45.772;12.852;2023-05-07T09:31:08;4.07;;;3.77;;
8488;SDS011;4281;45.772;12.852;2023-05-07T09:33:36;4.20;;;3.90;;
8488;SDS011;4281;45.772;12.852;2023-05-07T09:36:04;4.43;;;3.93;;
8488;SDS011;4281;45.772;12.852;2023-05-07T09:38:35;3.97;;;3.67;;
8488;SDS011;4281;45.772;12.852;2023-05-07T09:41:04;3.90;;;3.60;;
8488;SDS011;4281;45.772;12.852;2023-05-07T09:43:32;4.10;;;3.80;;
8488;SDS011;4281;45.772;12.852;2023-05-07T09:46:06;4.00;;;3.77;;
8488;SDS011;4281;45.772;12.852;2023-05-07T09:48:36;4.33;;;4.00;;
8488;SDS011;4281;45.772;12.852;2023-05-07T09:51:06;4.30;;;4.00;;
8488;SDS011;4281;45.772;12.852;2023-05-07T09:53:43;4.43;;;3.93;;
8488;SDS011;4281;45.772;12.852;2023-05-07T09:56:13;3.93;;;3.63;;
8488;SDS011;4281;45.772;12.852;2023-05-07T09:58:41;4.07;;;3.77;;
8488;SDS011;4281;45.772;12.852;2023-05-07T10:01:10;3.93;;;3.63;;
8488;SDS011;4281;45.772;12.852;2023-05-07T10:03:38;4.30;;;3.90;;
8488;SDS011;4281;45.772;12.852;2023-05-07T10:06:08;3.83;;;3.60;;
8488;SDS011;4281;45.772;12.852;2023-05-07T10:08:37;4.30;;;3.90;;
8488;SDS011;4281;45.772;12.852;2023-05-07T10:11:06;4.10;;;3.80;;
8488;SDS011;4281;45.772;12.852;2023-05-07T10:13:34;3.97;;;3.67;;
8488;SDS011;4281;45.772;12.852;2023-05-07T10:16:04;3.67;;;3.47;;
8488;SDS011;4281;45.772;12.852;2023-05-07T10:18:32;3.77;;;3.57;;
8488;SDS011;4281;45.772;12.852;2023-05-07T10:21:02;4.40;;;4.00;;
8488;SDS011;4281;45.772;12.852;2023-05-07T10:23:36;4.03;;;3.67;;
8488;SDS011;4281;45.772;12.852;2023-05-07T10:26:06;4.20;;;3.90;;
8488;SDS011;4281;45.772;12.852;2023-05-07T10:28:38;4.20;;;3.90;;
8488;SDS011;4281;45.772;12.852;2023-05-07T10:31:09;3.90;;;3.60;;
8488;SDS011;4281;45.772;12.852;2023-05-07T10:33:42;3.83;;;3.60;;
8488;SDS011;4281;45.772;12.852;2023-05-07T10:36:11;4.17;;;3.87;;
8488;SDS011;4281;45.772;12.852;2023-05-07T10:38:39;4.63;;;4.23;;
8488;SDS011;4281;45.772;12.852;2023-05-07T10:41:09;4.60;;;4.23;;
8488;SDS011;4281;45.772;12.852;2023-05-07T10:43:40;4.80;;;4.27;;
8488;SDS011;4281;45.772;12.852;2023-05-07T10:46:09;4.50;;;4.20;;
8488;SDS011;4281;45.772;12.852;2023-05-07T10:51:38;4.33;;;4.03;;
8488;SDS011;4281;45.772;12.852;2023-05-07T10:56:52;3.90;;;3.60;;
8488;SDS011;4281;45.772;12.852;2023-05-07T10:59:36;3.70;;;3.50;;
8488;SDS011;4281;45.772;12.852;2023-05-07T11:02:12;4.23;;;3.93;;
8488;SDS011;4281;45.772;12.852;2023-05-07T11:04:41;3.70;;;3.40;;
8488;SDS011;4281;45.772;12.852;2023-05-07T11:07:25;4.70;;;4.40;;
8488;SDS011;4281;45.772;12.852;2023-05-07T11:10:01;3.87;;;3.50;;
8488;SDS011;4281;45.772;12.852;2023-05-07T11:12:48;3.80;;;3.50;;
8488;SDS011;4281;45.772;12.852;2023-05-07T11:18:08;4.23;;;3.93;;
8488;SDS011;4281;45.772;12.852;2023-05-07T11:20:44;4.10;;;3.80;;
8488;SDS011;4281;45.772;12.852;2023-05-07T11:26:44;4.27;;;3.87;;
8488;SDS011;4281;45.772;12.852;2023-05-07T11:29:15;3.83;;;3.60;;
8488;SDS011;4281;45.772;12.852;2023-05-07T11:31:50;4.73;;;3.93;;
8488;SDS011;4281;45.772;12.852;2023-05-07T11:34:21;3.70;;;3.50;;
8488;SDS011;4281;45.772;12.852;2023-05-07T11:36:50;4.23;;;3.93;;
8488;SDS011;4281;45.772;12.852;2023-05-07T11:39:28;4.00;;;3.70;;
8488;SDS011;4281;45.772;12.852;2023-05-07T11:42:00;4.00;;;3.70;;
8488;SDS011;4281;45.772;12.852;2023-05-07T11:44:41;4.40;;;4.00;;
8488;SDS011;4281;45.772;12.852;2023-05-07T11:47:10;4.30;;;4.00;;
8488;SDS011;4281;45.772;12.852;2023-05-07T11:49:38;4.23;;;3.93;;
8488;SDS011;4281;45.772;12.852;2023-05-07T11:52:07;4.07;;;3.67;;
8488;SDS011;4281;45.772;12.852;2023-05-07T11:54:35;3.90;;;3.60;;
8488;SDS011;4281;45.772;12.852;2023-05-07T11:57:04;4.03;;;3.70;;
8488;SDS011;4281;45.772;12.852;2023-05-07T11:59:37;4.03;;;3.83;;
8488;SDS011;4281;45.772;12.852;2023-05-07T12:02:07;4.83;;;4.53;;
8488;SDS011;4281;45.772;12.852;2023-05-07T12:04:37;5.13;;;4.70;;
8488;SDS011;4281;45.772;12.852;2023-05-07T12:07:05;6.00;;;5.40;;
8488;SDS011;4281;45.772;12.852;2023-05-07T12:09:33;5.40;;;5.00;;
8488;SDS011;4281;45.772;12.852;2023-05-07T12:12:04;5.80;;;5.40;;
8488;SDS011;4281;45.772;12.852;2023-05-07T12:14:32;5.70;;;5.30;;
8488;SDS011;4281;45.772;12.852;2023-05-07T12:17:00;5.37;;;4.97;;
8488;SDS011;4281;45.772;12.852;2023-05-07T12:19:30;6.13;;;5.57;;
8488;SDS011;4281;45.772;12.852;2023-05-07T12:21:59;5.20;;;4.80;;
8488;SDS011;4281;45.772;12.852;2023-05-07T12:24:27;5.63;;;5.23;;
8488;SDS011;4281;45.772;12.852;2023-05-07T12:26:55;5.23;;;4.83;;
8488;SDS011;4281;45.772;12.852;2023-05-07T12:29:23;5.77;;;5.37;;
8488;SDS011;4281;45.772;12.852;2023-05-07T12:31:50;5.43;;;4.93;;
8488;SDS011;4281;45.772;12.852;2023-05-07T12:34:18;6.20;;;5.63;;
8488;SDS011;4281;45.772;12.852;2023-05-07T12:36:48;6.10;;;5.60;;
8488;SDS011;4281;45.772;12.852;2023-05-07T12:39:16;5.70;;;5.30;;
8488;SDS011;4281;45.772;12.852;2023-05-07T12:41:53;5.57;;;5.07;;
8488;SDS011;4281;45.772;12.852;2023-05-07T12:44:22;5.80;;;5.37;;
8488;SDS011;4281;45.772;12.852;2023-05-07T12:46:50;5.77;;;5.27;;
8488;SDS011;4281;45.772;12.852;2023-05-07T12:49:18;6.27;;;5.77;;
8488;SDS011;4281;45.772;12.852;2023-05-07T12:51:51;5.60;;;5.20;;
8488;SDS011;4281;45.772;12.852;2023-05-07T12:54:29;6.03;;;5.57;;
8488;SDS011;4281;45.772;12.852;2023-05-07T12:57:01;5.47;;;5.07;;
8488;SDS011;4281;45.772;12.852;2023-05-07T12:59:33;5.17;;;4.77;;
8488;SDS011;4281;45.772;12.852;2023-05-07T13:02:01;6.03;;;5.53;;
8488;SDS011;4281;45.772;12.852;2023-05-07T13:04:30;5.20;;;4.80;;
8488;SDS011;4281;45.772;12.852;2023-05-07T13:06:59;4.83;;;4.43;;
8488;SDS011;4281;45.772;12.852;2023-05-07T13:09:27;5.73;;;5.23;;
8488;SDS011;4281;45.772;12.852;2023-05-07T13:11:55;5.53;;;5.10;;
8488;SDS011;4281;45.772;12.852;2023-05-07T13:14:26;6.00;;;5.50;;
8488;SDS011;4281;45.772;12.852;2023-05-07T13:16:54;5.73;;;5.10;;
8488;SDS011;4281;45.772;12.852;2023-05-07T13:19:22;5.30;;;4.90;;
8488;SDS011;4281;45.772;12.852;2023-05-07T13:21:49;5.10;;;4.70;;
8488;SDS011;4281;45.772;12.852;2023-05-07T13:24:19;5.07;;;4.77;;
8488;SDS011;4281;45.772;12.852;2023-05-07T13:26:46;4.97;;;4.57;;
8488;SDS011;4281;45.772;12.852;2023-05-07T13:29:14;4.87;;;4.47;;
8488;SDS011;4281;45.772;12.852;2023-05-07T13:31:42;5.00;;;4.60;;
8488;SDS011;4281;45.772;12.852;2023-05-07T13:34:10;4.90;;;4.50;;
8488;SDS011;4281;45.772;12.852;2023-05-07T13:36:38;4.63;;;4.33;;
8488;SDS011;4281;45.772;12.852;2023-05-07T13:39:08;4.57;;;4.17;;
8488;SDS011;4281;45.772;12.852;2023-05-07T13:41:37;4.70;;;4.30;;
8488;SDS011;4281;45.772;12.852;2023-05-07T13:44:05;4.80;;;4.40;;
8488;SDS011;4281;45.772;12.852;2023-05-07T13:46:33;4.07;;;3.77;;
8488;SDS011;4281;45.772;12.852;2023-05-07T13:49:01;4.40;;;4.00;;
8488;SDS011;4281;45.772;12.852;2023-05-07T13:51:29;3.90;;;3.60;;
8488;SDS011;4281;45.772;12.852;2023-05-07T13:53:57;4.43;;;4.13;;
8488;SDS011;4281;45.772;12.852;2023-05-07T13:56:25;4.10;;;3.80;;
8488;SDS011;4281;45.772;12.852;2023-05-07T13:58:55;4.03;;;3.73;;
8488;SDS011;4281;45.772;12.852;2023-05-07T14:01:26;3.87;;;3.67;;
8488;SDS011;4281;45.772;12.852;2023-05-07T14:03:55;4.33;;;3.90;;
8488;SDS011;4281;45.772;12.852;2023-05-07T14:06:23;4.00;;;3.70;;
8488;SDS011;4281;45.772;12.852;2023-05-07T14:08:51;4.30;;;4.00;;
8488;SDS011;4281;45.772;12.852;2023-05-07T14:11:19;4.00;;;3.70;;
8488;SDS011;4281;45.772;12.852;2023-05-07T14:13:47;4.10;;;3.80;;
8488;SDS011;4281;45.772;12.852;2023-05-07T14:16:16;3.93;;;3.63;;
8488;SDS011;4281;45.772;12.852;2023-05-07T14:18:44;4.20;;;3.93;;
8488;SDS011;4281;45.772;12.852;2023-05-07T14:21:12;4.13;;;3.83;;
8488;SDS011;4281;45.772;12.852;2023-05-07T14:23:42;4.10;;;3.80;;
8488;SDS011;4281;45.772;12.852;2023-05-07T14:26:10;3.93;;;3.63;;
8488;SDS011;4281;45.772;12.852;2023-05-07T14:28:38;4.53;;;4.00;;
8488;SDS011;4281;45.772;12.852;2023-05-07T14:31:06;4.00;;;3.70;;
8488;SDS011;4281;45.772;12.852;2023-05-07T14:33:36;3.57;;;3.37;;
8488;SDS011;4281;45.772;12.852;2023-05-07T14:36:07;3.50;;;3.30;;
8488;SDS011;4281;45.772;12.852;2023-05-07T14:38:35;3.70;;;3.50;;
8488;SDS011;4281;45.772;12.852;2023-05-07T14:41:03;3.63;;;3.43;;
8488;SDS011;4281;45.772;12.852;2023-05-07T14:43:31;3.80;;;3.50;;
8488;SDS011;4281;45.772;12.852;2023-05-07T14:45:59;3.40;;;3.20;;
8488;SDS011;4281;45.772;12.852;2023-05-07T14:48:26;3.77;;;3.53;;
8488;SDS011;4281;45.772;12.852;2023-05-07T14:50:56;3.27;;;3.07;;
8488;SDS011;4281;45.772;12.852;2023-05-07T14:53:23;3.30;;;3.10;;
8488;SDS011;4281;45.772;12.852;2023-05-07T14:55:51;4.20;;;3.90;;
8488;SDS011;4281;45.772;12.852;2023-05-07T14:58:19;3.50;;;3.20;;
8488;SDS011;4281;45.772;12.852;2023-05-07T15:00:47;3.10;;;2.90;;
8488;SDS011;4281;45.772;12.852;2023-05-07T15:03:15;3.23;;;3.03;;
8488;SDS011;4281;45.772;12.852;2023-05-07T15:05:43;3.23;;;3.00;;
8488;SDS011;4281;45.772;12.852;2023-05-07T15:08:12;3.60;;;3.30;;
8488;SDS011;4281;45.772;12.852;2023-05-07T15:10:40;3.30;;;3.10;;
8488;SDS011;4281;45.772;12.852;2023-05-07T15:13:09;3.60;;;3.30;;
8488;SDS011;4281;45.772;12.852;2023-05-07T15:15:41;3.50;;;3.30;;
8488;SDS011;4281;45.772;12.852;2023-05-07T15:18:09;3.13;;;2.93;;
8488;SDS011;4281;45.772;12.852;2023-05-07T15:20:37;3.63;;;3.33;;
8488;SDS011;4281;45.772;12.852;2023-05-07T15:23:05;3.53;;;3.23;;